sensor_id;sensor_type;location;lat;lon;timestamp;P1;durP1;ratioP1;P2;durP2;ratioP2
30892;SDS011;17595;50.884;4.346;2023-09-12T00:02:18;3.38;;;2.00;;
30892;SDS011;17595;50.884;4.346;2023-09-12T00:04:43;5.50;;;1.90;;
30892;SDS011;17595;50.884;4.346;2023-09-12T00:07:09;2.67;;;1.83;;
30892;SDS011;17595;50.884;4.346;2023-09-12T00:09:35;1.33;;;1.23;;
30892;SDS011;17595;50.884;4.346;2023-09-12T00:12:00;2.40;;;2.20;;
30892;SDS011;17595;50.884;4.346;2023-09-12T00:14:26;1.88;;;1.70;;
30892;SDS011;17595;50.884;4.346;2023-09-12T00:16:52;3.63;;;1.60;;
30892;SDS011;17595;50.884;4.346;2023-09-12T00:19:20;2.20;;;1.52;;
30892;SDS011;17595;50.884;4.346;2023-09-12T00:21:46;3.25;;;1.55;;
30892;SDS011;17595;50.884;4.346;2023-09-12T00:24:11;2.03;;;1.92;;
30892;SDS011;17595;50.884;4.346;2023-09-12T00:26:37;2.90;;;2.20;;
30892;SDS011;17595;50.884;4.346;2023-09-12T00:29:03;5.20;;;2.25;;
30892;SDS011;17595;50.884;4.346;2023-09-12T00:31:28;4.00;;;2.63;;
30892;SDS011;17595;50.884;4.346;2023-09-12T00:33:54;2.15;;;1.88;;
30892;SDS011;17595;50.884;4.346;2023-09-12T00:36:19;4.30;;;3.72;;
30892;SDS011;17595;50.884;4.346;2023-09-12T00:38:45;1.88;;;1.67;;
30892;SDS011;17595;50.884;4.346;2023-09-12T00:41:11;1.90;;;1.80;;
30892;SDS011;17595;50.884;4.346;2023-09-12T00:43:36;4.35;;;2.25;;
30892;SDS011;17595;50.884;4.346;2023-09-12T00:46:02;2.22;;;1.65;;
30892;SDS011;17595;50.884;4.346;2023-09-12T00:48:27;2.08;;;1.77;;
30892;SDS011;17595;50.884;4.346;2023-09-12T00:50:54;3.40;;;3.05;;
30892;SDS011;17595;50.884;4.346;2023-09-12T00:53:20;3.22;;;2.13;;
30892;SDS011;17595;50.884;4.346;2023-09-12T00:55:48;4.60;;;2.58;;
30892;SDS011;17595;50.884;4.346;2023-09-12T00:58:21;1.15;;;1.13;;
30892;SDS011;17595;50.884;4.346;2023-09-12T01:00:47;2.47;;;1.92;;
30892;SDS011;17595;50.884;4.346;2023-09-12T01:03:13;2.85;;;2.28;;
30892;SDS011;17595;50.884;4.346;2023-09-12T01:05:38;3.22;;;2.75;;
30892;SDS011;17595;50.884;4.346;2023-09-12T01:08:07;2.15;;;1.70;;
30892;SDS011;17595;50.884;4.346;2023-09-12T01:10:33;3.30;;;3.00;;
30892;SDS011;17595;50.884;4.346;2023-09-12T01:12:59;3.80;;;1.65;;
30892;SDS011;17595;50.884;4.346;2023-09-12T01:15:24;2.95;;;2.67;;
30892;SDS011;17595;50.884;4.346;2023-09-12T01:17:50;2.47;;;2.20;;
30892;SDS011;17595;50.884;4.346;2023-09-12T01:20:17;1.63;;;1.52;;
30892;SDS011;17595;50.884;4.346;2023-09-12T01:28:04;3.00;;;2.10;;
30892;SDS011;17595;50.884;4.346;2023-09-12T01:30:32;2.10;;;1.55;;
30892;SDS011;17595;50.884;4.346;2023-09-12T01:33:00;2.47;;;1.80;;
30892;SDS011;17595;50.884;4.346;2023-09-12T01:35:27;3.47;;;2.90;;
30892;SDS011;17595;50.884;4.346;2023-09-12T01:37:53;4.53;;;2.53;;
30892;SDS011;17595;50.884;4.346;2023-09-12T01:40:21;2.40;;;2.10;;
30892;SDS011;17595;50.884;4.346;2023-09-12T01:42:55;2.10;;;1.90;;
30892;SDS011;17595;50.884;4.346;2023-09-12T01:45:22;1.58;;;1.48;;
30892;SDS011;17595;50.884;4.346;2023-09-12T01:47:48;2.92;;;2.50;;
30892;SDS011;17595;50.884;4.346;2023-09-12T01:50:15;3.38;;;1.80;;
30892;SDS011;17595;50.884;4.346;2023-09-12T01:52:42;5.07;;;2.80;;
30892;SDS011;17595;50.884;4.346;2023-09-12T01:55:08;2.80;;;2.03;;
30892;SDS011;17595;50.884;4.346;2023-09-12T01:57:35;4.10;;;2.00;;
30892;SDS011;17595;50.884;4.346;2023-09-12T02:00:02;2.28;;;1.92;;
30892;SDS011;17595;50.884;4.346;2023-09-12T02:02:29;2.95;;;2.13;;
30892;SDS011;17595;50.884;4.346;2023-09-12T02:07:44;1.95;;;1.85;;
30892;SDS011;17595;50.884;4.346;2023-09-12T02:10:11;1.67;;;1.40;;
30892;SDS011;17595;50.884;4.346;2023-09-12T02:12:37;3.88;;;2.42;;
30892;SDS011;17595;50.884;4.346;2023-09-12T02:15:03;2.97;;;2.00;;
30892;SDS011;17595;50.884;4.346;2023-09-12T02:17:29;2.15;;;1.98;;
30892;SDS011;17595;50.884;4.346;2023-09-12T02:19:55;2.35;;;1.63;;
30892;SDS011;17595;50.884;4.346;2023-09-12T02:22:20;2.22;;;1.90;;
30892;SDS011;17595;50.884;4.346;2023-09-12T02:24:46;3.50;;;1.75;;
30892;SDS011;17595;50.884;4.346;2023-09-12T02:27:12;2.22;;;1.70;;
30892;SDS011;17595;50.884;4.346;2023-09-12T02:29:41;1.85;;;1.65;;
30892;SDS011;17595;50.884;4.346;2023-09-12T02:32:07;3.70;;;2.28;;
30892;SDS011;17595;50.884;4.346;2023-09-12T02:34:33;2.97;;;2.50;;
30892;SDS011;17595;50.884;4.346;2023-09-12T02:36:58;3.85;;;3.50;;
30892;SDS011;17595;50.884;4.346;2023-09-12T02:39:24;1.90;;;1.75;;
30892;SDS011;17595;50.884;4.346;2023-09-12T02:41:50;3.63;;;2.00;;
30892;SDS011;17595;50.884;4.346;2023-09-12T02:44:15;4.72;;;3.53;;
30892;SDS011;17595;50.884;4.346;2023-09-12T02:46:41;3.67;;;2.42;;
30892;SDS011;17595;50.884;4.346;2023-09-12T02:49:07;3.78;;;3.38;;
30892;SDS011;17595;50.884;4.346;2023-09-12T02:51:32;4.25;;;2.90;;
30892;SDS011;17595;50.884;4.346;2023-09-12T02:53:58;3.90;;;3.28;;
30892;SDS011;17595;50.884;4.346;2023-09-12T02:56:24;2.83;;;1.88;;
30892;SDS011;17595;50.884;4.346;2023-09-12T02:58:49;2.47;;;2.22;;
30892;SDS011;17595;50.884;4.346;2023-09-12T03:01:15;2.85;;;2.00;;
30892;SDS011;17595;50.884;4.346;2023-09-12T03:03:42;2.47;;;2.03;;
30892;SDS011;17595;50.884;4.346;2023-09-12T03:06:09;3.00;;;2.25;;
30892;SDS011;17595;50.884;4.346;2023-09-12T03:08:34;3.17;;;2.13;;
30892;SDS011;17595;50.884;4.346;2023-09-12T03:11:00;1.88;;;1.73;;
30892;SDS011;17595;50.884;4.346;2023-09-12T03:13:28;3.17;;;2.70;;
30892;SDS011;17595;50.884;4.346;2023-09-12T03:15:53;2.58;;;1.80;;
30892;SDS011;17595;50.884;4.346;2023-09-12T03:18:19;2.28;;;1.63;;
30892;SDS011;17595;50.884;4.346;2023-09-12T03:20:45;1.92;;;1.52;;
30892;SDS011;17595;50.884;4.346;2023-09-12T03:23:10;1.95;;;1.85;;
30892;SDS011;17595;50.884;4.346;2023-09-12T03:25:37;2.28;;;2.08;;
30892;SDS011;17595;50.884;4.346;2023-09-12T03:28:03;4.68;;;1.55;;
30892;SDS011;17595;50.884;4.346;2023-09-12T03:30:31;2.13;;;1.20;;
30892;SDS011;17595;50.884;4.346;2023-09-12T03:32:58;2.75;;;1.25;;
30892;SDS011;17595;50.884;4.346;2023-09-12T03:35:24;2.10;;;1.17;;
30892;SDS011;17595;50.884;4.346;2023-09-12T03:37:50;1.45;;;1.38;;
30892;SDS011;17595;50.884;4.346;2023-09-12T03:40:15;0.98;;;0.77;;
30892;SDS011;17595;50.884;4.346;2023-09-12T03:42:41;1.55;;;1.45;;
30892;SDS011;17595;50.884;4.346;2023-09-12T03:45:07;2.55;;;2.35;;
30892;SDS011;17595;50.884;4.346;2023-09-12T03:47:33;2.70;;;1.95;;
30892;SDS011;17595;50.884;4.346;2023-09-12T03:49:59;1.95;;;1.58;;
30892;SDS011;17595;50.884;4.346;2023-09-12T03:52:25;1.80;;;1.70;;
30892;SDS011;17595;50.884;4.346;2023-09-12T03:54:50;2.63;;;2.17;;
30892;SDS011;17595;50.884;4.346;2023-09-12T03:57:16;2.90;;;1.58;;
30892;SDS011;17595;50.884;4.346;2023-09-12T03:59:41;1.90;;;1.27;;
30892;SDS011;17595;50.884;4.346;2023-09-12T04:02:08;6.68;;;2.10;;
30892;SDS011;17595;50.884;4.346;2023-09-12T04:04:33;3.17;;;2.60;;
30892;SDS011;17595;50.884;4.346;2023-09-12T04:06:59;1.42;;;1.33;;
30892;SDS011;17595;50.884;4.346;2023-09-12T04:09:26;1.73;;;1.60;;
30892;SDS011;17595;50.884;4.346;2023-09-12T04:11:52;1.55;;;1.45;;
30892;SDS011;17595;50.884;4.346;2023-09-12T04:14:20;1.67;;;1.25;;
30892;SDS011;17595;50.884;4.346;2023-09-12T04:16:46;3.50;;;2.47;;
30892;SDS011;17595;50.884;4.346;2023-09-12T04:19:13;2.10;;;1.92;;
30892;SDS011;17595;50.884;4.346;2023-09-12T04:21:39;2.40;;;1.98;;
30892;SDS011;17595;50.884;4.346;2023-09-12T04:24:05;1.55;;;1.45;;
30892;SDS011;17595;50.884;4.346;2023-09-12T04:26:31;1.75;;;1.20;;
30892;SDS011;17595;50.884;4.346;2023-09-12T04:28:57;3.50;;;1.90;;
30892;SDS011;17595;50.884;4.346;2023-09-12T04:31:23;5.05;;;2.20;;
30892;SDS011;17595;50.884;4.346;2023-09-12T04:33:50;2.67;;;2.40;;
30892;SDS011;17595;50.884;4.346;2023-09-12T04:36:16;2.40;;;1.83;;
30892;SDS011;17595;50.884;4.346;2023-09-12T04:38:43;3.22;;;2.22;;
30892;SDS011;17595;50.884;4.346;2023-09-12T04:41:08;0.88;;;0.65;;
30892;SDS011;17595;50.884;4.346;2023-09-12T04:43:35;3.05;;;1.83;;
30892;SDS011;17595;50.884;4.346;2023-09-12T04:46:01;2.22;;;2.03;;
30892;SDS011;17595;50.884;4.346;2023-09-12T04:48:26;2.00;;;1.77;;
30892;SDS011;17595;50.884;4.346;2023-09-12T04:50:52;1.23;;;1.13;;
30892;SDS011;17595;50.884;4.346;2023-09-12T04:53:18;3.10;;;2.25;;
30892;SDS011;17595;50.884;4.346;2023-09-12T04:55:44;4.55;;;1.75;;
30892;SDS011;17595;50.884;4.346;2023-09-12T04:58:09;0.88;;;0.88;;
30892;SDS011;17595;50.884;4.346;2023-09-12T05:00:35;2.00;;;1.17;;
30892;SDS011;17595;50.884;4.346;2023-09-12T05:03:01;2.42;;;2.20;;
30892;SDS011;17595;50.884;4.346;2023-09-12T05:05:28;2.05;;;1.05;;
30892;SDS011;17595;50.884;4.346;2023-09-12T05:07:54;2.92;;;1.58;;
30892;SDS011;17595;50.884;4.346;2023-09-12T05:10:20;2.28;;;1.95;;
30892;SDS011;17595;50.884;4.346;2023-09-12T05:12:45;3.15;;;2.10;;
30892;SDS011;17595;50.884;4.346;2023-09-12T05:15:11;1.05;;;1.00;;
30892;SDS011;17595;50.884;4.346;2023-09-12T05:17:36;1.65;;;1.45;;
30892;SDS011;17595;50.884;4.346;2023-09-12T05:20:03;0.98;;;0.93;;
30892;SDS011;17595;50.884;4.346;2023-09-12T05:22:31;2.33;;;1.90;;
30892;SDS011;17595;50.884;4.346;2023-09-12T05:24:57;2.63;;;1.52;;
30892;SDS011;17595;50.884;4.346;2023-09-12T05:27:23;2.83;;;1.50;;
30892;SDS011;17595;50.884;4.346;2023-09-12T05:29:48;2.28;;;1.35;;
30892;SDS011;17595;50.884;4.346;2023-09-12T05:32:14;1.98;;;1.05;;
30892;SDS011;17595;50.884;4.346;2023-09-12T05:34:41;2.50;;;1.95;;
30892;SDS011;17595;50.884;4.346;2023-09-12T05:37:07;2.13;;;1.92;;
30892;SDS011;17595;50.884;4.346;2023-09-12T05:39:33;3.42;;;1.02;;
30892;SDS011;17595;50.884;4.346;2023-09-12T05:41:59;1.70;;;1.60;;
30892;SDS011;17595;50.884;4.346;2023-09-12T05:44:24;3.15;;;2.92;;
30892;SDS011;17595;50.884;4.346;2023-09-12T05:46:50;2.80;;;2.13;;
30892;SDS011;17595;50.884;4.346;2023-09-12T05:49:16;0.95;;;0.85;;
30892;SDS011;17595;50.884;4.346;2023-09-12T05:51:42;2.30;;;1.75;;
30892;SDS011;17595;50.884;4.346;2023-09-12T05:54:07;2.75;;;2.15;;
30892;SDS011;17595;50.884;4.346;2023-09-12T05:56:33;2.15;;;1.65;;
30892;SDS011;17595;50.884;4.346;2023-09-12T05:58:59;1.13;;;0.90;;
30892;SDS011;17595;50.884;4.346;2023-09-12T06:01:25;2.67;;;2.45;;
30892;SDS011;17595;50.884;4.346;2023-09-12T06:03:51;2.17;;;1.80;;
30892;SDS011;17595;50.884;4.346;2023-09-12T06:06:16;3.90;;;3.45;;
30892;SDS011;17595;50.884;4.346;2023-09-12T06:08:42;2.40;;;2.30;;
30892;SDS011;17595;50.884;4.346;2023-09-12T06:11:08;3.80;;;2.55;;
30892;SDS011;17595;50.884;4.346;2023-09-12T06:13:33;2.08;;;1.90;;
30892;SDS011;17595;50.884;4.346;2023-09-12T06:16:02;2.60;;;2.40;;
30892;SDS011;17595;50.884;4.346;2023-09-12T06:18:28;4.20;;;3.08;;
30892;SDS011;17595;50.884;4.346;2023-09-12T06:20:56;2.65;;;2.38;;
30892;SDS011;17595;50.884;4.346;2023-09-12T06:23:22;2.55;;;2.35;;
30892;SDS011;17595;50.884;4.346;2023-09-12T06:25:48;2.92;;;1.65;;
30892;SDS011;17595;50.884;4.346;2023-09-12T06:28:24;2.17;;;1.98;;
30892;SDS011;17595;50.884;4.346;2023-09-12T06:30:53;5.03;;;3.28;;
30892;SDS011;17595;50.884;4.346;2023-09-12T06:33:19;3.42;;;2.90;;
30892;SDS011;17595;50.884;4.346;2023-09-12T06:35:48;3.58;;;2.47;;
30892;SDS011;17595;50.884;4.346;2023-09-12T06:38:15;2.33;;;2.13;;
30892;SDS011;17595;50.884;4.346;2023-09-12T06:40:44;3.92;;;3.00;;
30892;SDS011;17595;50.884;4.346;2023-09-12T06:43:10;5.57;;;3.45;;
30892;SDS011;17595;50.884;4.346;2023-09-12T06:45:36;3.33;;;3.03;;
30892;SDS011;17595;50.884;4.346;2023-09-12T06:48:03;3.28;;;2.72;;
30892;SDS011;17595;50.884;4.346;2023-09-12T06:50:29;4.07;;;2.20;;
30892;SDS011;17595;50.884;4.346;2023-09-12T06:52:54;5.13;;;3.20;;
30892;SDS011;17595;50.884;4.346;2023-09-12T06:55:20;4.47;;;3.63;;
30892;SDS011;17595;50.884;4.346;2023-09-12T06:57:46;3.05;;;2.55;;
30892;SDS011;17595;50.884;4.346;2023-09-12T07:00:12;2.67;;;2.47;;
30892;SDS011;17595;50.884;4.346;2023-09-12T07:02:38;3.67;;;2.47;;
30892;SDS011;17595;50.884;4.346;2023-09-12T07:05:04;3.80;;;2.75;;
30892;SDS011;17595;50.884;4.346;2023-09-12T07:07:30;2.72;;;1.98;;
30892;SDS011;17595;50.884;4.346;2023-09-12T07:09:55;3.55;;;2.88;;
30892;SDS011;17595;50.884;4.346;2023-09-12T07:12:21;2.05;;;1.90;;
30892;SDS011;17595;50.884;4.346;2023-09-12T07:14:47;2.65;;;1.83;;
30892;SDS011;17595;50.884;4.346;2023-09-12T07:17:13;3.00;;;2.47;;
30892;SDS011;17595;50.884;4.346;2023-09-12T07:19:39;2.75;;;2.50;;
30892;SDS011;17595;50.884;4.346;2023-09-12T07:22:04;3.20;;;2.35;;
30892;SDS011;17595;50.884;4.346;2023-09-12T07:24:30;2.92;;;2.58;;
30892;SDS011;17595;50.884;4.346;2023-09-12T07:26:56;1.98;;;1.88;;
30892;SDS011;17595;50.884;4.346;2023-09-12T07:29:23;2.45;;;1.67;;
30892;SDS011;17595;50.884;4.346;2023-09-12T07:31:51;2.78;;;2.58;;
30892;SDS011;17595;50.884;4.346;2023-09-12T07:34:18;3.20;;;2.90;;
30892;SDS011;17595;50.884;4.346;2023-09-12T07:36:45;3.58;;;3.05;;
30892;SDS011;17595;50.884;4.346;2023-09-12T07:39:10;4.45;;;3.05;;
30892;SDS011;17595;50.884;4.346;2023-09-12T07:41:36;5.00;;;2.78;;
30892;SDS011;17595;50.884;4.346;2023-09-12T07:44:02;3.20;;;2.50;;
30892;SDS011;17595;50.884;4.346;2023-09-12T07:46:29;2.83;;;2.63;;
30892;SDS011;17595;50.884;4.346;2023-09-12T07:48:55;4.78;;;2.38;;
30892;SDS011;17595;50.884;4.346;2023-09-12T07:51:21;4.75;;;2.63;;
30892;SDS011;17595;50.884;4.346;2023-09-12T07:53:48;3.75;;;3.15;;
30892;SDS011;17595;50.884;4.346;2023-09-12T07:56:13;2.38;;;2.00;;
30892;SDS011;17595;50.884;4.346;2023-09-12T07:58:39;3.70;;;3.15;;
30892;SDS011;17595;50.884;4.346;2023-09-12T08:01:08;4.88;;;2.95;;
30892;SDS011;17595;50.884;4.346;2023-09-12T08:03:35;2.85;;;2.15;;
30892;SDS011;17595;50.884;4.346;2023-09-12T08:06:02;3.22;;;2.92;;
30892;SDS011;17595;50.884;4.346;2023-09-12T08:08:28;2.80;;;2.25;;
30892;SDS011;17595;50.884;4.346;2023-09-12T08:10:55;3.42;;;2.35;;
30892;SDS011;17595;50.884;4.346;2023-09-12T08:13:22;1.42;;;1.17;;
30892;SDS011;17595;50.884;4.346;2023-09-12T08:15:48;2.75;;;1.85;;
30892;SDS011;17595;50.884;4.346;2023-09-12T08:18:14;2.67;;;2.30;;
30892;SDS011;17595;50.884;4.346;2023-09-12T08:20:40;2.05;;;1.20;;
30892;SDS011;17595;50.884;4.346;2023-09-12T08:23:05;1.42;;;1.30;;
30892;SDS011;17595;50.884;4.346;2023-09-12T08:25:31;1.60;;;1.20;;
30892;SDS011;17595;50.884;4.346;2023-09-12T08:27:58;1.73;;;1.10;;
30892;SDS011;17595;50.884;4.346;2023-09-12T08:30:23;2.00;;;1.67;;
30892;SDS011;17595;50.884;4.346;2023-09-12T08:32:50;2.42;;;1.58;;
30892;SDS011;17595;50.884;4.346;2023-09-12T08:35:16;2.20;;;2.03;;
30892;SDS011;17595;50.884;4.346;2023-09-12T08:37:42;1.75;;;1.65;;
30892;SDS011;17595;50.884;4.346;2023-09-12T08:40:08;3.22;;;2.92;;
30892;SDS011;17595;50.884;4.346;2023-09-12T08:42:39;2.42;;;2.13;;
30892;SDS011;17595;50.884;4.346;2023-09-12T08:45:13;4.00;;;1.52;;
30892;SDS011;17595;50.884;4.346;2023-09-12T08:47:49;2.97;;;1.98;;
30892;SDS011;17595;50.884;4.346;2023-09-12T08:50:16;2.25;;;1.80;;
30892;SDS011;17595;50.884;4.346;2023-09-12T08:52:42;2.42;;;2.03;;
30892;SDS011;17595;50.884;4.346;2023-09-12T08:55:09;3.33;;;2.20;;
30892;SDS011;17595;50.884;4.346;2023-09-12T08:57:36;4.35;;;3.00;;
30892;SDS011;17595;50.884;4.346;2023-09-12T09:00:04;4.80;;;3.00;;
30892;SDS011;17595;50.884;4.346;2023-09-12T09:02:34;2.65;;;2.15;;
30892;SDS011;17595;50.884;4.346;2023-09-12T09:05:04;5.45;;;2.72;;
30892;SDS011;17595;50.884;4.346;2023-09-12T09:07:32;3.83;;;2.85;;
30892;SDS011;17595;50.884;4.346;2023-09-12T09:10:01;2.58;;;1.55;;
30892;SDS011;17595;50.884;4.346;2023-09-12T09:12:29;3.30;;;1.67;;
30892;SDS011;17595;50.884;4.346;2023-09-12T09:14:55;2.35;;;1.70;;
30892;SDS011;17595;50.884;4.346;2023-09-12T09:17:21;4.68;;;2.90;;
30892;SDS011;17595;50.884;4.346;2023-09-12T09:19:46;2.05;;;1.55;;
30892;SDS011;17595;50.884;4.346;2023-09-12T09:22:12;4.32;;;2.25;;
30892;SDS011;17595;50.884;4.346;2023-09-12T09:24:38;2.00;;;1.50;;
30892;SDS011;17595;50.884;4.346;2023-09-12T09:27:04;2.03;;;1.55;;
30892;SDS011;17595;50.884;4.346;2023-09-12T09:29:29;2.20;;;1.40;;
30892;SDS011;17595;50.884;4.346;2023-09-12T09:31:58;2.17;;;1.40;;
30892;SDS011;17595;50.884;4.346;2023-09-12T09:34:26;2.00;;;1.90;;
30892;SDS011;17595;50.884;4.346;2023-09-12T09:36:57;2.10;;;1.40;;
30892;SDS011;17595;50.884;4.346;2023-09-12T09:39:27;1.75;;;1.52;;
30892;SDS011;17595;50.884;4.346;2023-09-12T09:41:56;2.45;;;2.25;;
30892;SDS011;17595;50.884;4.346;2023-09-12T09:44:23;1.60;;;1.50;;
30892;SDS011;17595;50.884;4.346;2023-09-12T09:46:57;1.30;;;1.20;;
30892;SDS011;17595;50.884;4.346;2023-09-12T09:49:27;1.08;;;1.00;;
30892;SDS011;17595;50.884;4.346;2023-09-12T09:51:56;1.98;;;1.70;;
30892;SDS011;17595;50.884;4.346;2023-09-12T09:54:23;2.30;;;1.90;;
30892;SDS011;17595;50.884;4.346;2023-09-12T09:56:52;1.55;;;1.40;;
30892;SDS011;17595;50.884;4.346;2023-09-12T09:59:23;1.75;;;1.63;;
30892;SDS011;17595;50.884;4.346;2023-09-12T10:01:50;1.48;;;1.38;;
30892;SDS011;17595;50.884;4.346;2023-09-12T10:04:20;4.35;;;1.88;;
30892;SDS011;17595;50.884;4.346;2023-09-12T10:06:47;1.38;;;1.10;;
30892;SDS011;17595;50.884;4.346;2023-09-12T10:09:14;3.00;;;2.00;;
30892;SDS011;17595;50.884;4.346;2023-09-12T10:11:41;4.95;;;2.08;;
30892;SDS011;17595;50.884;4.346;2023-09-12T10:14:08;2.50;;;1.67;;
30892;SDS011;17595;50.884;4.346;2023-09-12T10:16:35;1.05;;;1.00;;
30892;SDS011;17595;50.884;4.346;2023-09-12T10:19:20;1.80;;;1.20;;
30892;SDS011;17595;50.884;4.346;2023-09-12T10:24:35;1.98;;;1.63;;
30892;SDS011;17595;50.884;4.346;2023-09-12T10:27:01;1.10;;;1.00;;
30892;SDS011;17595;50.884;4.346;2023-09-12T10:29:28;1.55;;;1.35;;
30892;SDS011;17595;50.884;4.346;2023-09-12T10:31:55;2.08;;;1.88;;
30892;SDS011;17595;50.884;4.346;2023-09-12T10:34:22;1.80;;;1.70;;
30892;SDS011;17595;50.884;4.346;2023-09-12T10:36:50;2.05;;;1.77;;
30892;SDS011;17595;50.884;4.346;2023-09-12T10:39:18;1.60;;;1.50;;
30892;SDS011;17595;50.884;4.346;2023-09-12T10:41:44;1.63;;;1.02;;
30892;SDS011;17595;50.884;4.346;2023-09-12T10:44:15;1.65;;;1.08;;
30892;SDS011;17595;50.884;4.346;2023-09-12T10:46:41;0.98;;;0.93;;
30892;SDS011;17595;50.884;4.346;2023-09-12T10:49:10;3.10;;;2.00;;
30892;SDS011;17595;50.884;4.346;2023-09-12T10:51:38;1.58;;;1.38;;
30892;SDS011;17595;50.884;4.346;2023-09-12T10:54:12;1.30;;;1.10;;
30892;SDS011;17595;50.884;4.346;2023-09-12T10:57:01;2.08;;;1.88;;
30892;SDS011;17595;50.884;4.346;2023-09-12T10:59:36;1.27;;;1.10;;
30892;SDS011;17595;50.884;4.346;2023-09-12T11:04:54;3.05;;;1.80;;
30892;SDS011;17595;50.884;4.346;2023-09-12T11:12:54;2.05;;;1.70;;
30892;SDS011;17595;50.884;4.346;2023-09-12T11:15:22;0.77;;;0.68;;
30892;SDS011;17595;50.884;4.346;2023-09-12T11:17:59;1.30;;;0.93;;
30892;SDS011;17595;50.884;4.346;2023-09-12T11:20:51;0.95;;;0.85;;
30892;SDS011;17595;50.884;4.346;2023-09-12T11:23:22;1.92;;;1.40;;
30892;SDS011;17595;50.884;4.346;2023-09-12T11:26:02;0.85;;;0.82;;
30892;SDS011;17595;50.884;4.346;2023-09-12T11:28:31;1.65;;;1.35;;
30892;SDS011;17595;50.884;4.346;2023-09-12T11:30:57;0.95;;;0.90;;
30892;SDS011;17595;50.884;4.346;2023-09-12T11:33:24;1.35;;;0.93;;
30892;SDS011;17595;50.884;4.346;2023-09-12T11:35:54;1.27;;;1.17;;
30892;SDS011;17595;50.884;4.346;2023-09-12T11:38:25;2.00;;;1.30;;
30892;SDS011;17595;50.884;4.346;2023-09-12T11:40:53;1.83;;;1.00;;
30892;SDS011;17595;50.884;4.346;2023-09-12T11:43:25;1.17;;;1.00;;
30892;SDS011;17595;50.884;4.346;2023-09-12T11:45:52;1.15;;;1.05;;
30892;SDS011;17595;50.884;4.346;2023-09-12T11:48:19;2.00;;;1.30;;
30892;SDS011;17595;50.884;4.346;2023-09-12T11:50:55;0.75;;;0.70;;
30892;SDS011;17595;50.884;4.346;2023-09-12T11:53:25;1.77;;;0.95;;
30892;SDS011;17595;50.884;4.346;2023-09-12T11:55:56;0.77;;;0.77;;
30892;SDS011;17595;50.884;4.346;2023-09-12T11:58:23;0.70;;;0.70;;
30892;SDS011;17595;50.884;4.346;2023-09-12T12:00:51;0.90;;;0.90;;
30892;SDS011;17595;50.884;4.346;2023-09-12T12:03:19;1.35;;;1.13;;
30892;SDS011;17595;50.884;4.346;2023-09-12T12:05:46;0.70;;;0.70;;
30892;SDS011;17595;50.884;4.346;2023-09-12T12:08:13;1.00;;;0.75;;
30892;SDS011;17595;50.884;4.346;2023-09-12T12:10:39;1.10;;;0.63;;
30892;SDS011;17595;50.884;4.346;2023-09-12T12:13:06;0.90;;;0.77;;
30892;SDS011;17595;50.884;4.346;2023-09-12T12:15:41;0.90;;;0.70;;
30892;SDS011;17595;50.884;4.346;2023-09-12T12:18:07;0.82;;;0.60;;
30892;SDS011;17595;50.884;4.346;2023-09-12T12:20:32;1.05;;;0.88;;
30892;SDS011;17595;50.884;4.346;2023-09-12T12:22:58;3.47;;;1.45;;
30892;SDS011;17595;50.884;4.346;2023-09-12T12:25:24;1.55;;;1.10;;
30892;SDS011;17595;50.884;4.346;2023-09-12T12:27:50;0.98;;;0.88;;
30892;SDS011;17595;50.884;4.346;2023-09-12T12:30:18;1.45;;;1.00;;
30892;SDS011;17595;50.884;4.346;2023-09-12T12:32:46;0.70;;;0.70;;
30892;SDS011;17595;50.884;4.346;2023-09-12T12:35:18;1.08;;;0.98;;
30892;SDS011;17595;50.884;4.346;2023-09-12T12:37:49;1.08;;;1.00;;
30892;SDS011;17595;50.884;4.346;2023-09-12T12:40:15;2.03;;;1.08;;
30892;SDS011;17595;50.884;4.346;2023-09-12T12:45:16;1.23;;;0.80;;
30892;SDS011;17595;50.884;4.346;2023-09-12T12:47:57;0.70;;;0.68;;
30892;SDS011;17595;50.884;4.346;2023-09-12T12:50:24;1.08;;;0.95;;
30892;SDS011;17595;50.884;4.346;2023-09-12T12:52:49;0.93;;;0.63;;
30892;SDS011;17595;50.884;4.346;2023-09-12T12:55:15;0.82;;;0.82;;
30892;SDS011;17595;50.884;4.346;2023-09-12T13:00:10;1.77;;;1.05;;
30892;SDS011;17595;50.884;4.346;2023-09-12T13:02:40;0.57;;;0.50;;
30892;SDS011;17595;50.884;4.346;2023-09-12T13:05:18;1.30;;;1.20;;
30892;SDS011;17595;50.884;4.346;2023-09-12T13:07:52;1.40;;;1.05;;
30892;SDS011;17595;50.884;4.346;2023-09-12T13:10:18;0.75;;;0.50;;
30892;SDS011;17595;50.884;4.346;2023-09-12T13:12:44;1.17;;;1.08;;
30892;SDS011;17595;50.884;4.346;2023-09-12T13:15:13;0.52;;;0.52;;
30892;SDS011;17595;50.884;4.346;2023-09-12T13:17:42;0.65;;;0.65;;
30892;SDS011;17595;50.884;4.346;2023-09-12T13:20:09;1.13;;;0.70;;
30892;SDS011;17595;50.884;4.346;2023-09-12T13:22:35;0.50;;;0.50;;
30892;SDS011;17595;50.884;4.346;2023-09-12T13:25:01;1.00;;;0.90;;
30892;SDS011;17595;50.884;4.346;2023-09-12T13:27:27;1.67;;;1.45;;
30892;SDS011;17595;50.884;4.346;2023-09-12T13:29:53;1.25;;;0.80;;
30892;SDS011;17595;50.884;4.346;2023-09-12T13:32:19;1.65;;;1.20;;
30892;SDS011;17595;50.884;4.346;2023-09-12T13:34:44;2.33;;;1.33;;
30892;SDS011;17595;50.884;4.346;2023-09-12T13:37:10;2.03;;;1.45;;
30892;SDS011;17595;50.884;4.346;2023-09-12T13:39:36;1.17;;;0.80;;
30892;SDS011;17595;50.884;4.346;2023-09-12T13:42:01;0.95;;;0.95;;
30892;SDS011;17595;50.884;4.346;2023-09-12T13:44:29;1.40;;;1.30;;
30892;SDS011;17595;50.884;4.346;2023-09-12T13:46:55;2.55;;;1.65;;
30892;SDS011;17595;50.884;4.346;2023-09-12T13:49:20;1.88;;;1.23;;
30892;SDS011;17595;50.884;4.346;2023-09-12T13:51:46;2.35;;;1.48;;
30892;SDS011;17595;50.884;4.346;2023-09-12T13:54:12;1.20;;;1.10;;
30892;SDS011;17595;50.884;4.346;2023-09-12T13:56:43;1.35;;;1.17;;
30892;SDS011;17595;50.884;4.346;2023-09-12T13:59:09;0.95;;;0.88;;
30892;SDS011;17595;50.884;4.346;2023-09-12T14:01:35;1.27;;;1.10;;
30892;SDS011;17595;50.884;4.346;2023-09-12T14:04:01;1.85;;;1.75;;
30892;SDS011;17595;50.884;4.346;2023-09-12T14:06:28;1.42;;;0.93;;
30892;SDS011;17595;50.884;4.346;2023-09-12T14:08:53;1.50;;;1.10;;
30892;SDS011;17595;50.884;4.346;2023-09-12T14:11:19;1.67;;;1.58;;
30892;SDS011;17595;50.884;4.346;2023-09-12T14:13:45;1.15;;;1.05;;
30892;SDS011;17595;50.884;4.346;2023-09-12T14:16:10;4.50;;;1.80;;
30892;SDS011;17595;50.884;4.346;2023-09-12T14:18:36;1.05;;;0.70;;
30892;SDS011;17595;50.884;4.346;2023-09-12T14:21:02;1.58;;;1.35;;
30892;SDS011;17595;50.884;4.346;2023-09-12T14:23:28;2.08;;;1.38;;
30892;SDS011;17595;50.884;4.346;2023-09-12T14:25:54;1.20;;;1.13;;
30892;SDS011;17595;50.884;4.346;2023-09-12T14:28:19;1.15;;;1.05;;
30892;SDS011;17595;50.884;4.346;2023-09-12T14:30:45;0.90;;;0.90;;
30892;SDS011;17595;50.884;4.346;2023-09-12T14:33:11;1.10;;;1.10;;
30892;SDS011;17595;50.884;4.346;2023-09-12T14:35:38;1.70;;;1.25;;
30892;SDS011;17595;50.884;4.346;2023-09-12T14:38:05;0.88;;;0.88;;
30892;SDS011;17595;50.884;4.346;2023-09-12T14:40:31;1.00;;;1.00;;
30892;SDS011;17595;50.884;4.346;2023-09-12T14:42:56;1.33;;;1.17;;
30892;SDS011;17595;50.884;4.346;2023-09-12T14:45:22;2.75;;;1.52;;
30892;SDS011;17595;50.884;4.346;2023-09-12T14:47:50;0.85;;;0.80;;
30892;SDS011;17595;50.884;4.346;2023-09-12T14:50:16;1.17;;;1.08;;
30892;SDS011;17595;50.884;4.346;2023-09-12T14:52:41;1.25;;;1.13;;
30892;SDS011;17595;50.884;4.346;2023-09-12T14:55:08;0.95;;;0.80;;
30892;SDS011;17595;50.884;4.346;2023-09-12T14:57:34;1.25;;;1.15;;
30892;SDS011;17595;50.884;4.346;2023-09-12T15:00:00;1.08;;;0.98;;
30892;SDS011;17595;50.884;4.346;2023-09-12T15:02:26;1.35;;;0.70;;
30892;SDS011;17595;50.884;4.346;2023-09-12T15:04:56;0.65;;;0.65;;
30892;SDS011;17595;50.884;4.346;2023-09-12T15:07:26;0.95;;;0.73;;
30892;SDS011;17595;50.884;4.346;2023-09-12T15:09:54;3.65;;;2.05;;
30892;SDS011;17595;50.884;4.346;2023-09-12T15:12:20;1.77;;;1.33;;